sensor_id;sensor_type;location;lat;lon;timestamp;P1;durP1;ratioP1;P2;durP2;ratioP2
48805;SDS011;34625;47.176;27.548;2023-05-19T00:01:46;14.43;;;8.70;;
48805;SDS011;34625;47.176;27.548;2023-05-19T00:04:13;13.05;;;7.80;;
48805;SDS011;34625;47.176;27.548;2023-05-19T00:06:40;10.80;;;7.28;;
48805;SDS011;34625;47.176;27.548;2023-05-19T00:09:07;15.52;;;7.90;;
48805;SDS011;34625;47.176;27.548;2023-05-19T00:11:34;10.75;;;8.43;;
48805;SDS011;34625;47.176;27.548;2023-05-19T00:14:03;10.98;;;8.55;;
48805;SDS011;34625;47.176;27.548;2023-05-19T00:16:31;12.77;;;8.57;;
48805;SDS011;34625;47.176;27.548;2023-05-19T00:18:57;11.50;;;7.43;;
48805;SDS011;34625;47.176;27.548;2023-05-19T00:21:24;11.55;;;7.43;;
48805;SDS011;34625;47.176;27.548;2023-05-19T00:23:51;12.25;;;8.27;;
48805;SDS011;34625;47.176;27.548;2023-05-19T00:26:17;11.48;;;7.65;;
48805;SDS011;34625;47.176;27.548;2023-05-19T00:28:52;13.07;;;8.45;;
48805;SDS011;34625;47.176;27.548;2023-05-19T00:31:19;10.50;;;7.93;;
48805;SDS011;34625;47.176;27.548;2023-05-19T00:33:45;12.15;;;7.75;;
48805;SDS011;34625;47.176;27.548;2023-05-19T00:36:11;12.32;;;7.07;;
48805;SDS011;34625;47.176;27.548;2023-05-19T00:38:37;12.00;;;8.18;;
48805;SDS011;34625;47.176;27.548;2023-05-19T00:41:04;12.63;;;8.13;;
48805;SDS011;34625;47.176;27.548;2023-05-19T00:43:30;11.95;;;8.38;;
48805;SDS011;34625;47.176;27.548;2023-05-19T00:46:00;11.13;;;8.02;;
48805;SDS011;34625;47.176;27.548;2023-05-19T00:48:26;11.02;;;8.13;;
48805;SDS011;34625;47.176;27.548;2023-05-19T00:50:53;12.55;;;8.50;;
48805;SDS011;34625;47.176;27.548;2023-05-19T00:53:29;13.27;;;8.82;;
48805;SDS011;34625;47.176;27.548;2023-05-19T00:55:56;12.32;;;8.65;;
48805;SDS011;34625;47.176;27.548;2023-05-19T00:58:23;14.35;;;8.10;;
48805;SDS011;34625;47.176;27.548;2023-05-19T01:00:53;14.70;;;8.63;;
48805;SDS011;34625;47.176;27.548;2023-05-19T01:03:30;11.65;;;8.15;;
48805;SDS011;34625;47.176;27.548;2023-05-19T01:05:59;12.15;;;8.52;;
48805;SDS011;34625;47.176;27.548;2023-05-19T01:08:31;13.32;;;7.45;;
48805;SDS011;34625;47.176;27.548;2023-05-19T01:10:59;12.73;;;8.77;;
48805;SDS011;34625;47.176;27.548;2023-05-19T01:13:25;11.65;;;8.45;;
48805;SDS011;34625;47.176;27.548;2023-05-19T01:16:00;13.05;;;7.47;;
48805;SDS011;34625;47.176;27.548;2023-05-19T01:18:37;11.70;;;8.07;;
48805;SDS011;34625;47.176;27.548;2023-05-19T01:21:37;11.77;;;7.15;;
48805;SDS011;34625;47.176;27.548;2023-05-19T01:32:50;12.88;;;8.75;;
48805;SDS011;34625;47.176;27.548;2023-05-19T01:35:20;14.40;;;8.50;;
48805;SDS011;34625;47.176;27.548;2023-05-19T01:37:51;14.63;;;7.47;;
48805;SDS011;34625;47.176;27.548;2023-05-19T01:40:20;12.93;;;8.48;;
48805;SDS011;34625;47.176;27.548;2023-05-19T01:42:50;16.23;;;9.57;;
48805;SDS011;34625;47.176;27.548;2023-05-19T01:45:18;13.95;;;8.48;;
48805;SDS011;34625;47.176;27.548;2023-05-19T01:47:46;12.07;;;8.35;;
48805;SDS011;34625;47.176;27.548;2023-05-19T01:50:15;12.27;;;7.75;;
48805;SDS011;34625;47.176;27.548;2023-05-19T01:52:41;12.75;;;8.32;;
48805;SDS011;34625;47.176;27.548;2023-05-19T01:55:08;10.07;;;7.93;;
48805;SDS011;34625;47.176;27.548;2023-05-19T01:57:39;18.80;;;8.93;;
48805;SDS011;34625;47.176;27.548;2023-05-19T02:11:39;12.18;;;9.27;;
48805;SDS011;34625;47.176;27.548;2023-05-19T02:14:19;14.52;;;8.68;;
48805;SDS011;34625;47.176;27.548;2023-05-19T02:17:06;16.95;;;10.02;;
48805;SDS011;34625;47.176;27.548;2023-05-19T02:19:36;13.95;;;9.40;;
48805;SDS011;34625;47.176;27.548;2023-05-19T02:22:04;17.33;;;9.07;;
48805;SDS011;34625;47.176;27.548;2023-05-19T02:24:31;17.40;;;9.32;;
48805;SDS011;34625;47.176;27.548;2023-05-19T02:26:57;13.48;;;8.68;;
48805;SDS011;34625;47.176;27.548;2023-05-19T02:29:24;14.45;;;9.35;;
48805;SDS011;34625;47.176;27.548;2023-05-19T02:31:50;15.32;;;9.05;;
48805;SDS011;34625;47.176;27.548;2023-05-19T02:34:17;18.77;;;10.15;;
48805;SDS011;34625;47.176;27.548;2023-05-19T02:36:43;14.75;;;10.02;;
48805;SDS011;34625;47.176;27.548;2023-05-19T02:39:10;22.15;;;10.05;;
48805;SDS011;34625;47.176;27.548;2023-05-19T02:41:36;16.67;;;9.80;;
48805;SDS011;34625;47.176;27.548;2023-05-19T02:44:03;16.70;;;10.18;;
48805;SDS011;34625;47.176;27.548;2023-05-19T02:46:29;20.95;;;10.13;;
48805;SDS011;34625;47.176;27.548;2023-05-19T02:48:55;18.98;;;9.40;;
48805;SDS011;34625;47.176;27.548;2023-05-19T02:51:21;15.50;;;9.35;;
48805;SDS011;34625;47.176;27.548;2023-05-19T02:53:47;19.00;;;10.43;;
48805;SDS011;34625;47.176;27.548;2023-05-19T02:56:14;23.80;;;9.43;;
48805;SDS011;34625;47.176;27.548;2023-05-19T02:58:40;16.15;;;9.68;;
48805;SDS011;34625;47.176;27.548;2023-05-19T03:01:07;20.00;;;10.23;;
48805;SDS011;34625;47.176;27.548;2023-05-19T03:03:34;17.83;;;10.60;;
48805;SDS011;34625;47.176;27.548;2023-05-19T03:06:00;17.23;;;9.93;;
48805;SDS011;34625;47.176;27.548;2023-05-19T03:08:27;16.40;;;9.55;;
48805;SDS011;34625;47.176;27.548;2023-05-19T03:10:53;13.93;;;9.52;;
48805;SDS011;34625;47.176;27.548;2023-05-19T03:13:18;22.40;;;10.88;;
48805;SDS011;34625;47.176;27.548;2023-05-19T03:15:44;12.85;;;7.88;;
48805;SDS011;34625;47.176;27.548;2023-05-19T03:18:11;15.18;;;8.82;;
48805;SDS011;34625;47.176;27.548;2023-05-19T03:20:37;17.10;;;9.82;;
48805;SDS011;34625;47.176;27.548;2023-05-19T03:23:03;15.70;;;8.32;;
48805;SDS011;34625;47.176;27.548;2023-05-19T03:25:30;14.80;;;9.85;;
48805;SDS011;34625;47.176;27.548;2023-05-19T03:27:57;14.35;;;8.45;;
48805;SDS011;34625;47.176;27.548;2023-05-19T03:30:23;14.85;;;9.18;;
48805;SDS011;34625;47.176;27.548;2023-05-19T03:33:15;19.02;;;10.43;;
48805;SDS011;34625;47.176;27.548;2023-05-19T03:35:42;15.43;;;9.30;;
48805;SDS011;34625;47.176;27.548;2023-05-19T03:38:09;19.48;;;10.32;;
48805;SDS011;34625;47.176;27.548;2023-05-19T03:40:35;17.38;;;8.52;;
48805;SDS011;34625;47.176;27.548;2023-05-19T03:43:07;14.95;;;9.18;;
48805;SDS011;34625;47.176;27.548;2023-05-19T03:48:26;20.00;;;9.80;;
48805;SDS011;34625;47.176;27.548;2023-05-19T03:51:10;21.27;;;9.57;;
48805;SDS011;34625;47.176;27.548;2023-05-19T03:53:36;16.67;;;8.07;;
48805;SDS011;34625;47.176;27.548;2023-05-19T03:56:02;13.25;;;10.07;;
48805;SDS011;34625;47.176;27.548;2023-05-19T03:58:28;28.63;;;11.45;;
48805;SDS011;34625;47.176;27.548;2023-05-19T04:00:55;20.55;;;9.88;;
48805;SDS011;34625;47.176;27.548;2023-05-19T04:03:21;17.70;;;10.05;;
48805;SDS011;34625;47.176;27.548;2023-05-19T04:05:47;19.52;;;10.13;;
48805;SDS011;34625;47.176;27.548;2023-05-19T04:08:13;19.10;;;10.48;;
48805;SDS011;34625;47.176;27.548;2023-05-19T04:10:40;18.00;;;10.50;;
48805;SDS011;34625;47.176;27.548;2023-05-19T04:13:06;22.65;;;10.32;;
48805;SDS011;34625;47.176;27.548;2023-05-19T04:15:32;19.00;;;10.05;;
48805;SDS011;34625;47.176;27.548;2023-05-19T04:17:58;11.88;;;8.15;;
48805;SDS011;34625;47.176;27.548;2023-05-19T04:20:24;14.90;;;9.35;;
48805;SDS011;34625;47.176;27.548;2023-05-19T04:22:50;15.15;;;10.00;;
48805;SDS011;34625;47.176;27.548;2023-05-19T04:25:16;16.30;;;9.75;;
48805;SDS011;34625;47.176;27.548;2023-05-19T04:27:44;15.50;;;8.82;;
48805;SDS011;34625;47.176;27.548;2023-05-19T04:30:10;19.65;;;11.18;;
48805;SDS011;34625;47.176;27.548;2023-05-19T04:32:37;20.60;;;9.63;;
48805;SDS011;34625;47.176;27.548;2023-05-19T04:35:05;21.65;;;10.40;;
48805;SDS011;34625;47.176;27.548;2023-05-19T04:37:31;16.80;;;9.60;;
48805;SDS011;34625;47.176;27.548;2023-05-19T04:40:01;22.15;;;10.77;;
48805;SDS011;34625;47.176;27.548;2023-05-19T04:42:29;19.10;;;9.95;;
48805;SDS011;34625;47.176;27.548;2023-05-19T04:44:59;16.83;;;10.07;;
48805;SDS011;34625;47.176;27.548;2023-05-19T04:47:27;20.77;;;9.90;;
48805;SDS011;34625;47.176;27.548;2023-05-19T04:49:54;18.45;;;10.43;;
48805;SDS011;34625;47.176;27.548;2023-05-19T04:52:20;18.65;;;10.60;;
48805;SDS011;34625;47.176;27.548;2023-05-19T04:54:47;17.95;;;9.10;;
48805;SDS011;34625;47.176;27.548;2023-05-19T04:57:13;18.33;;;10.40;;
48805;SDS011;34625;47.176;27.548;2023-05-19T04:59:39;17.63;;;9.88;;
48805;SDS011;34625;47.176;27.548;2023-05-19T05:02:06;18.52;;;9.25;;
48805;SDS011;34625;47.176;27.548;2023-05-19T05:04:34;21.58;;;10.20;;
48805;SDS011;34625;47.176;27.548;2023-05-19T05:07:00;20.58;;;9.13;;
48805;SDS011;34625;47.176;27.548;2023-05-19T05:09:27;12.68;;;8.15;;
48805;SDS011;34625;47.176;27.548;2023-05-19T05:11:55;15.82;;;8.43;;
48805;SDS011;34625;47.176;27.548;2023-05-19T05:14:23;19.55;;;8.85;;
48805;SDS011;34625;47.176;27.548;2023-05-19T05:16:49;18.00;;;8.65;;
48805;SDS011;34625;47.176;27.548;2023-05-19T05:19:20;15.85;;;8.57;;
48805;SDS011;34625;47.176;27.548;2023-05-19T05:21:47;15.15;;;9.13;;
48805;SDS011;34625;47.176;27.548;2023-05-19T05:24:14;14.70;;;8.38;;
48805;SDS011;34625;47.176;27.548;2023-05-19T05:26:46;15.65;;;8.43;;
48805;SDS011;34625;47.176;27.548;2023-05-19T05:29:12;19.13;;;9.02;;
48805;SDS011;34625;47.176;27.548;2023-05-19T05:31:38;12.35;;;8.40;;
48805;SDS011;34625;47.176;27.548;2023-05-19T05:34:05;15.40;;;9.35;;
48805;SDS011;34625;47.176;27.548;2023-05-19T05:36:31;12.32;;;7.85;;
48805;SDS011;34625;47.176;27.548;2023-05-19T05:38:59;16.77;;;7.80;;
48805;SDS011;34625;47.176;27.548;2023-05-19T05:41:27;17.52;;;10.13;;
48805;SDS011;34625;47.176;27.548;2023-05-19T05:44:02;15.25;;;8.40;;
48805;SDS011;34625;47.176;27.548;2023-05-19T05:46:30;12.40;;;7.65;;
48805;SDS011;34625;47.176;27.548;2023-05-19T05:48:57;14.75;;;8.77;;
48805;SDS011;34625;47.176;27.548;2023-05-19T05:51:23;13.82;;;8.73;;
48805;SDS011;34625;47.176;27.548;2023-05-19T05:53:50;17.13;;;8.50;;
48805;SDS011;34625;47.176;27.548;2023-05-19T05:56:27;16.15;;;7.05;;
48805;SDS011;34625;47.176;27.548;2023-05-19T05:58:54;15.25;;;8.60;;
48805;SDS011;34625;47.176;27.548;2023-05-19T06:01:21;14.13;;;7.97;;
48805;SDS011;34625;47.176;27.548;2023-05-19T06:03:48;6.88;;;4.22;;
48805;SDS011;34625;47.176;27.548;2023-05-19T06:06:19;15.05;;;8.48;;
48805;SDS011;34625;47.176;27.548;2023-05-19T06:08:45;10.00;;;6.65;;
48805;SDS011;34625;47.176;27.548;2023-05-19T06:11:11;1.23;;;0.98;;
48805;SDS011;34625;47.176;27.548;2023-05-19T06:13:39;1.75;;;1.48;;
48805;SDS011;34625;47.176;27.548;2023-05-19T06:16:14;1.70;;;1.38;;
48805;SDS011;34625;47.176;27.548;2023-05-19T06:18:43;10.00;;;6.53;;
48805;SDS011;34625;47.176;27.548;2023-05-19T06:21:09;9.07;;;6.20;;
48805;SDS011;34625;47.176;27.548;2023-05-19T06:23:38;1.15;;;1.15;;
48805;SDS011;34625;47.176;27.548;2023-05-19T06:26:06;0.88;;;0.88;;
48805;SDS011;34625;47.176;27.548;2023-05-19T06:28:33;8.10;;;3.63;;
48805;SDS011;34625;47.176;27.548;2023-05-19T06:30:59;4.35;;;3.92;;
48805;SDS011;34625;47.176;27.548;2023-05-19T06:33:41;2.63;;;2.25;;
48805;SDS011;34625;47.176;27.548;2023-05-19T06:36:08;9.73;;;6.15;;
48805;SDS011;34625;47.176;27.548;2023-05-19T06:38:36;9.02;;;4.80;;
48805;SDS011;34625;47.176;27.548;2023-05-19T06:41:02;6.63;;;4.57;;
48805;SDS011;34625;47.176;27.548;2023-05-19T06:43:28;14.75;;;8.30;;
48805;SDS011;34625;47.176;27.548;2023-05-19T06:45:57;10.05;;;4.93;;
48805;SDS011;34625;47.176;27.548;2023-05-19T06:48:24;14.00;;;7.85;;
48805;SDS011;34625;47.176;27.548;2023-05-19T06:50:51;18.40;;;8.55;;
48805;SDS011;34625;47.176;27.548;2023-05-19T06:53:18;12.77;;;6.97;;
48805;SDS011;34625;47.176;27.548;2023-05-19T06:55:45;12.13;;;8.30;;
48805;SDS011;34625;47.176;27.548;2023-05-19T06:58:16;12.98;;;8.02;;
48805;SDS011;34625;47.176;27.548;2023-05-19T07:00:42;11.45;;;7.57;;
48805;SDS011;34625;47.176;27.548;2023-05-19T07:03:11;5.97;;;4.93;;
48805;SDS011;34625;47.176;27.548;2023-05-19T07:05:37;8.13;;;4.13;;
48805;SDS011;34625;47.176;27.548;2023-05-19T07:08:03;11.05;;;7.43;;
48805;SDS011;34625;47.176;27.548;2023-05-19T07:10:30;10.65;;;7.35;;
48805;SDS011;34625;47.176;27.548;2023-05-19T07:12:57;11.40;;;6.82;;
48805;SDS011;34625;47.176;27.548;2023-05-19T07:15:26;10.48;;;6.53;;
48805;SDS011;34625;47.176;27.548;2023-05-19T07:17:52;11.43;;;7.13;;
48805;SDS011;34625;47.176;27.548;2023-05-19T07:20:18;10.07;;;7.38;;
48805;SDS011;34625;47.176;27.548;2023-05-19T07:22:45;10.07;;;5.72;;
48805;SDS011;34625;47.176;27.548;2023-05-19T07:25:11;12.13;;;7.15;;
48805;SDS011;34625;47.176;27.548;2023-05-19T07:27:37;11.52;;;7.22;;
48805;SDS011;34625;47.176;27.548;2023-05-19T07:30:04;9.93;;;6.32;;
48805;SDS011;34625;47.176;27.548;2023-05-19T07:32:30;9.68;;;7.32;;
48805;SDS011;34625;47.176;27.548;2023-05-19T07:34:56;10.25;;;6.28;;
48805;SDS011;34625;47.176;27.548;2023-05-19T07:37:22;10.65;;;6.57;;
48805;SDS011;34625;47.176;27.548;2023-05-19T07:39:48;8.65;;;6.82;;
48805;SDS011;34625;47.176;27.548;2023-05-19T07:42:15;7.88;;;5.32;;
48805;SDS011;34625;47.176;27.548;2023-05-19T07:44:40;7.43;;;6.00;;
48805;SDS011;34625;47.176;27.548;2023-05-19T07:47:06;4.07;;;3.25;;
48805;SDS011;34625;47.176;27.548;2023-05-19T07:49:32;10.18;;;6.53;;
48805;SDS011;34625;47.176;27.548;2023-05-19T07:51:58;6.43;;;5.25;;
48805;SDS011;34625;47.176;27.548;2023-05-19T07:54:25;9.57;;;5.22;;
48805;SDS011;34625;47.176;27.548;2023-05-19T07:56:51;9.43;;;6.60;;
48805;SDS011;34625;47.176;27.548;2023-05-19T07:59:18;8.00;;;4.32;;
48805;SDS011;34625;47.176;27.548;2023-05-19T08:01:44;7.38;;;4.43;;
48805;SDS011;34625;47.176;27.548;2023-05-19T08:04:10;9.80;;;4.80;;
48805;SDS011;34625;47.176;27.548;2023-05-19T08:06:36;4.10;;;2.85;;
48805;SDS011;34625;47.176;27.548;2023-05-19T08:09:03;2.63;;;2.28;;
48805;SDS011;34625;47.176;27.548;2023-05-19T08:11:29;9.43;;;5.07;;
48805;SDS011;34625;47.176;27.548;2023-05-19T08:13:56;9.52;;;6.55;;
48805;SDS011;34625;47.176;27.548;2023-05-19T08:16:22;7.30;;;5.75;;
48805;SDS011;34625;47.176;27.548;2023-05-19T08:18:48;10.88;;;5.90;;
48805;SDS011;34625;47.176;27.548;2023-05-19T08:21:14;5.25;;;4.30;;
48805;SDS011;34625;47.176;27.548;2023-05-19T08:23:40;4.47;;;4.05;;
48805;SDS011;34625;47.176;27.548;2023-05-19T08:26:06;9.60;;;6.22;;
48805;SDS011;34625;47.176;27.548;2023-05-19T08:28:32;11.68;;;6.40;;
48805;SDS011;34625;47.176;27.548;2023-05-19T08:30:58;7.95;;;6.15;;
48805;SDS011;34625;47.176;27.548;2023-05-19T08:33:24;10.25;;;5.88;;
48805;SDS011;34625;47.176;27.548;2023-05-19T08:35:50;8.75;;;6.13;;
48805;SDS011;34625;47.176;27.548;2023-05-19T08:38:16;6.30;;;5.43;;
48805;SDS011;34625;47.176;27.548;2023-05-19T08:40:42;7.80;;;4.47;;
48805;SDS011;34625;47.176;27.548;2023-05-19T08:43:11;5.90;;;5.30;;
48805;SDS011;34625;47.176;27.548;2023-05-19T08:45:38;5.18;;;4.13;;
48805;SDS011;34625;47.176;27.548;2023-05-19T08:48:12;7.05;;;5.50;;
48805;SDS011;34625;47.176;27.548;2023-05-19T08:50:40;9.43;;;5.65;;
48805;SDS011;34625;47.176;27.548;2023-05-19T08:53:26;10.00;;;4.53;;
48805;SDS011;34625;47.176;27.548;2023-05-19T08:58:39;8.52;;;5.82;;
48805;SDS011;34625;47.176;27.548;2023-05-19T09:01:14;8.27;;;5.35;;
48805;SDS011;34625;47.176;27.548;2023-05-19T09:03:44;5.85;;;4.15;;
48805;SDS011;34625;47.176;27.548;2023-05-19T09:06:11;3.13;;;2.50;;
48805;SDS011;34625;47.176;27.548;2023-05-19T09:08:38;6.82;;;4.93;;
48805;SDS011;34625;47.176;27.548;2023-05-19T09:11:05;6.93;;;4.85;;
48805;SDS011;34625;47.176;27.548;2023-05-19T09:13:31;6.38;;;5.13;;
48805;SDS011;34625;47.176;27.548;2023-05-19T09:15:57;6.15;;;5.13;;
48805;SDS011;34625;47.176;27.548;2023-05-19T09:18:24;6.57;;;4.50;;
48805;SDS011;34625;47.176;27.548;2023-05-19T09:20:54;7.80;;;5.25;;
48805;SDS011;34625;47.176;27.548;2023-05-19T09:23:28;7.25;;;5.05;;
48805;SDS011;34625;47.176;27.548;2023-05-19T09:26:00;6.70;;;4.47;;
48805;SDS011;34625;47.176;27.548;2023-05-19T09:28:32;8.27;;;5.05;;
48805;SDS011;34625;47.176;27.548;2023-05-19T09:31:03;8.85;;;4.90;;
48805;SDS011;34625;47.176;27.548;2023-05-19T09:33:31;8.73;;;4.85;;
48805;SDS011;34625;47.176;27.548;2023-05-19T09:35:59;6.18;;;3.88;;
48805;SDS011;34625;47.176;27.548;2023-05-19T09:38:25;8.38;;;4.43;;
48805;SDS011;34625;47.176;27.548;2023-05-19T09:40:52;7.85;;;4.75;;
48805;SDS011;34625;47.176;27.548;2023-05-19T09:43:21;8.00;;;3.65;;
48805;SDS011;34625;47.176;27.548;2023-05-19T09:45:48;6.07;;;3.30;;
48805;SDS011;34625;47.176;27.548;2023-05-19T09:48:19;5.35;;;4.13;;
48805;SDS011;34625;47.176;27.548;2023-05-19T09:50:45;5.53;;;4.38;;
48805;SDS011;34625;47.176;27.548;2023-05-19T09:53:12;6.93;;;4.07;;
48805;SDS011;34625;47.176;27.548;2023-05-19T09:55:39;6.65;;;5.57;;
48805;SDS011;34625;47.176;27.548;2023-05-19T09:58:07;4.15;;;2.78;;
48805;SDS011;34625;47.176;27.548;2023-05-19T10:00:34;8.30;;;4.05;;
48805;SDS011;34625;47.176;27.548;2023-05-19T10:03:02;9.18;;;5.10;;
48805;SDS011;34625;47.176;27.548;2023-05-19T10:05:30;4.93;;;4.20;;
48805;SDS011;34625;47.176;27.548;2023-05-19T10:07:57;7.78;;;4.20;;
48805;SDS011;34625;47.176;27.548;2023-05-19T10:10:23;9.43;;;4.65;;
48805;SDS011;34625;47.176;27.548;2023-05-19T10:12:50;5.45;;;4.45;;
48805;SDS011;34625;47.176;27.548;2023-05-19T10:15:18;4.68;;;4.00;;
48805;SDS011;34625;47.176;27.548;2023-05-19T10:17:44;6.93;;;4.93;;
48805;SDS011;34625;47.176;27.548;2023-05-19T10:20:12;5.28;;;4.78;;
48805;SDS011;34625;47.176;27.548;2023-05-19T10:22:39;10.43;;;5.15;;
48805;SDS011;34625;47.176;27.548;2023-05-19T10:25:07;6.10;;;4.78;;
48805;SDS011;34625;47.176;27.548;2023-05-19T10:27:35;7.30;;;5.05;;
48805;SDS011;34625;47.176;27.548;2023-05-19T10:30:05;7.75;;;4.43;;
48805;SDS011;34625;47.176;27.548;2023-05-19T10:32:35;9.20;;;5.35;;
48805;SDS011;34625;47.176;27.548;2023-05-19T10:35:27;9.70;;;4.57;;
48805;SDS011;34625;47.176;27.548;2023-05-19T10:43:27;10.02;;;5.95;;
48805;SDS011;34625;47.176;27.548;2023-05-19T10:45:55;8.10;;;5.43;;
48805;SDS011;34625;47.176;27.548;2023-05-19T10:48:22;7.78;;;5.03;;
48805;SDS011;34625;47.176;27.548;2023-05-19T10:50:48;6.20;;;4.88;;
48805;SDS011;34625;47.176;27.548;2023-05-19T10:53:18;5.45;;;4.57;;
48805;SDS011;34625;47.176;27.548;2023-05-19T10:55:50;6.97;;;4.50;;
48805;SDS011;34625;47.176;27.548;2023-05-19T11:01:07;7.03;;;4.50;;
48805;SDS011;34625;47.176;27.548;2023-05-19T11:06:17;9.15;;;4.57;;
48805;SDS011;34625;47.176;27.548;2023-05-19T11:08:54;6.20;;;4.20;;
48805;SDS011;34625;47.176;27.548;2023-05-19T11:11:21;8.52;;;5.03;;
48805;SDS011;34625;47.176;27.548;2023-05-19T11:13:51;7.88;;;4.90;;
48805;SDS011;34625;47.176;27.548;2023-05-19T11:16:33;9.48;;;4.90;;
48805;SDS011;34625;47.176;27.548;2023-05-19T11:18:59;6.28;;;5.00;;
48805;SDS011;34625;47.176;27.548;2023-05-19T11:24:31;11.25;;;4.82;;
48805;SDS011;34625;47.176;27.548;2023-05-19T11:26:57;4.25;;;3.47;;
48805;SDS011;34625;47.176;27.548;2023-05-19T11:29:23;8.93;;;4.75;;
48805;SDS011;34625;47.176;27.548;2023-05-19T11:31:49;5.30;;;4.18;;
48805;SDS011;34625;47.176;27.548;2023-05-19T11:34:16;5.25;;;3.70;;
48805;SDS011;34625;47.176;27.548;2023-05-19T11:36:43;5.45;;;3.47;;
48805;SDS011;34625;47.176;27.548;2023-05-19T11:39:10;7.60;;;4.90;;
48805;SDS011;34625;47.176;27.548;2023-05-19T11:41:39;4.85;;;4.22;;
48805;SDS011;34625;47.176;27.548;2023-05-19T11:44:09;5.85;;;4.63;;
48805;SDS011;34625;47.176;27.548;2023-05-19T11:46:36;6.15;;;3.80;;
48805;SDS011;34625;47.176;27.548;2023-05-19T11:49:03;7.78;;;4.45;;
48805;SDS011;34625;47.176;27.548;2023-05-19T11:51:29;7.82;;;4.50;;
48805;SDS011;34625;47.176;27.548;2023-05-19T11:53:57;7.22;;;4.63;;
48805;SDS011;34625;47.176;27.548;2023-05-19T11:56:23;5.07;;;3.53;;
48805;SDS011;34625;47.176;27.548;2023-05-19T11:58:51;5.80;;;3.72;;
48805;SDS011;34625;47.176;27.548;2023-05-19T12:01:17;2.15;;;1.77;;
48805;SDS011;34625;47.176;27.548;2023-05-19T12:03:49;5.53;;;3.40;;
48805;SDS011;34625;47.176;27.548;2023-05-19T12:06:15;5.53;;;3.47;;
48805;SDS011;34625;47.176;27.548;2023-05-19T12:08:42;7.18;;;3.78;;
48805;SDS011;34625;47.176;27.548;2023-05-19T12:11:08;2.42;;;2.22;;
48805;SDS011;34625;47.176;27.548;2023-05-19T12:13:35;4.18;;;1.58;;
48805;SDS011;34625;47.176;27.548;2023-05-19T12:16:02;5.43;;;3.17;;
48805;SDS011;34625;47.176;27.548;2023-05-19T12:18:29;4.47;;;3.85;;
48805;SDS011;34625;47.176;27.548;2023-05-19T12:20:58;7.85;;;3.35;;
48805;SDS011;34625;47.176;27.548;2023-05-19T12:23:24;4.68;;;3.42;;
48805;SDS011;34625;47.176;27.548;2023-05-19T12:25:51;4.47;;;3.88;;
48805;SDS011;34625;47.176;27.548;2023-05-19T12:28:18;3.25;;;3.00;;
48805;SDS011;34625;47.176;27.548;2023-05-19T12:30:48;4.15;;;2.72;;
48805;SDS011;34625;47.176;27.548;2023-05-19T12:33:19;4.93;;;3.08;;
48805;SDS011;34625;47.176;27.548;2023-05-19T12:35:47;5.50;;;3.75;;
48805;SDS011;34625;47.176;27.548;2023-05-19T12:38:14;5.55;;;3.35;;
48805;SDS011;34625;47.176;27.548;2023-05-19T12:40:43;4.95;;;3.03;;
48805;SDS011;34625;47.176;27.548;2023-05-19T12:43:21;4.30;;;3.40;;
48805;SDS011;34625;47.176;27.548;2023-05-19T12:45:48;2.55;;;1.60;;
48805;SDS011;34625;47.176;27.548;2023-05-19T12:48:14;8.45;;;3.83;;
48805;SDS011;34625;47.176;27.548;2023-05-19T12:50:41;4.82;;;4.18;;
48805;SDS011;34625;47.176;27.548;2023-05-19T12:53:12;5.63;;;3.35;;
48805;SDS011;34625;47.176;27.548;2023-05-19T12:55:39;4.70;;;4.20;;
48805;SDS011;34625;47.176;27.548;2023-05-19T12:58:13;4.15;;;3.28;;
48805;SDS011;34625;47.176;27.548;2023-05-19T13:00:41;6.40;;;4.65;;
48805;SDS011;34625;47.176;27.548;2023-05-19T13:03:15;4.93;;;4.07;;
48805;SDS011;34625;47.176;27.548;2023-05-19T13:05:43;5.85;;;4.80;;
48805;SDS011;34625;47.176;27.548;2023-05-19T13:08:11;7.57;;;4.47;;
48805;SDS011;34625;47.176;27.548;2023-05-19T13:10:40;6.03;;;3.88;;
48805;SDS011;34625;47.176;27.548;2023-05-19T13:13:08;5.13;;;4.55;;
48805;SDS011;34625;47.176;27.548;2023-05-19T13:15:42;4.32;;;3.15;;
48805;SDS011;34625;47.176;27.548;2023-05-19T13:18:10;4.35;;;3.70;;
48805;SDS011;34625;47.176;27.548;2023-05-19T13:20:38;5.50;;;4.60;;
48805;SDS011;34625;47.176;27.548;2023-05-19T13:23:05;5.18;;;3.60;;
48805;SDS011;34625;47.176;27.548;2023-05-19T13:25:31;6.68;;;3.60;;
48805;SDS011;34625;47.176;27.548;2023-05-19T13:27:58;7.78;;;3.80;;
48805;SDS011;34625;47.176;27.548;2023-05-19T13:30:28;9.95;;;3.88;;
48805;SDS011;34625;47.176;27.548;2023-05-19T13:32:53;4.88;;;4.38;;
48805;SDS011;34625;47.176;27.548;2023-05-19T13:35:20;4.35;;;2.33;;
48805;SDS011;34625;47.176;27.548;2023-05-19T13:37:46;7.53;;;5.15;;
48805;SDS011;34625;47.176;27.548;2023-05-19T13:40:13;7.53;;;4.85;;
48805;SDS011;34625;47.176;27.548;2023-05-19T13:42:40;5.05;;;2.78;;
48805;SDS011;34625;47.176;27.548;2023-05-19T13:45:06;7.60;;;4.97;;
48805;SDS011;34625;47.176;27.548;2023-05-19T13:47:33;9.90;;;4.55;;
48805;SDS011;34625;47.176;27.548;2023-05-19T13:49:59;6.53;;;4.18;;
48805;SDS011;34625;47.176;27.548;2023-05-19T13:52:25;5.10;;;4.05;;
48805;SDS011;34625;47.176;27.548;2023-05-19T13:54:51;4.72;;;3.67;;
48805;SDS011;34625;47.176;27.548;2023-05-19T13:57:18;5.68;;;4.07;;
48805;SDS011;34625;47.176;27.548;2023-05-19T13:59:45;5.65;;;4.50;;
48805;SDS011;34625;47.176;27.548;2023-05-19T14:02:11;6.18;;;3.60;;
48805;SDS011;34625;47.176;27.548;2023-05-19T14:04:37;5.47;;;4.25;;
48805;SDS011;34625;47.176;27.548;2023-05-19T14:07:04;11.07;;;4.57;;
48805;SDS011;34625;47.176;27.548;2023-05-19T14:09:30;7.13;;;3.80;;
48805;SDS011;34625;47.176;27.548;2023-05-19T14:11:57;8.57;;;4.43;;
48805;SDS011;34625;47.176;27.548;2023-05-19T14:14:23;9.40;;;5.50;;
48805;SDS011;34625;47.176;27.548;2023-05-19T14:16:49;9.82;;;4.85;;
48805;SDS011;34625;47.176;27.548;2023-05-19T14:19:16;7.28;;;4.05;;
48805;SDS011;34625;47.176;27.548;2023-05-19T14:21:42;10.50;;;4.00;;
48805;SDS011;34625;47.176;27.548;2023-05-19T14:24:08;3.75;;;3.30;;
48805;SDS011;34625;47.176;27.548;2023-05-19T14:26:34;4.40;;;3.88;;
48805;SDS011;34625;47.176;27.548;2023-05-19T14:29:00;5.25;;;3.88;;
48805;SDS011;34625;47.176;27.548;2023-05-19T14:31:26;6.75;;;4.13;;
48805;SDS011;34625;47.176;27.548;2023-05-19T14:33:52;6.72;;;3.45;;
48805;SDS011;34625;47.176;27.548;2023-05-19T14:36:18;4.32;;;2.90;;
48805;SDS011;34625;47.176;27.548;2023-05-19T14:38:44;4.25;;;3.45;;
48805;SDS011;34625;47.176;27.548;2023-05-19T14:41:10;7.78;;;2.50;;
48805;SDS011;34625;47.176;27.548;2023-05-19T14:43:36;4.22;;;2.65;;
48805;SDS011;34625;47.176;27.548;2023-05-19T14:46:03;3.40;;;2.70;;
48805;SDS011;34625;47.176;27.548;2023-05-19T14:48:29;6.15;;;2.78;;
48805;SDS011;34625;47.176;27.548;2023-05-19T14:50:55;8.20;;;2.97;;
48805;SDS011;34625;47.176;27.548;2023-05-19T14:53:21;5.75;;;3.45;;
48805;SDS011;34625;47.176;27.548;2023-05-19T14:55:47;4.90;;;3.35;;
48805;SDS011;34625;47.176;27.548;2023-05-19T14:58:14;4.40;;;3.28;;
48805;SDS011;34625;47.176;27.548;2023-05-19T15:00:41;4.72;;;3.15;;
48805;SDS011;34625;47.176;27.548;2023-05-19T15:03:08;6.65;;;3.47;;
48805;SDS011;34625;47.176;27.548;2023-05-19T15:05:35;4.55;;;3.88;;
48805;SDS011;34625;47.176;27.548;2023-05-19T15:08:02;6.25;;;3.17;;
48805;SDS011;34625;47.176;27.548;2023-05-19T15:10:28;5.90;;;3.55;;
48805;SDS011;34625;47.176;27.548;2023-05-19T15:12:54;8.25;;;3.85;;